sensor_id;sensor_type;location;lat;lon;timestamp;P1;durP1;ratioP1;P2;durP2;ratioP2
24617;SDS011;12762;51.730;5.356;2022-10-13T00:01:15;16.60;;;8.70;;
24617;SDS011;12762;51.730;5.356;2022-10-13T00:03:43;20.23;;;8.67;;
24617;SDS011;12762;51.730;5.356;2022-10-13T00:06:15;13.43;;;8.60;;
24617;SDS011;12762;51.730;5.356;2022-10-13T00:08:44;16.53;;;8.70;;
24617;SDS011;12762;51.730;5.356;2022-10-13T00:11:15;18.53;;;9.20;;
24617;SDS011;12762;51.730;5.356;2022-10-13T00:13:45;19.17;;;9.70;;
24617;SDS011;12762;51.730;5.356;2022-10-13T00:16:18;17.57;;;9.83;;
24617;SDS011;12762;51.730;5.356;2022-10-13T00:18:48;20.27;;;9.20;;
24617;SDS011;12762;51.730;5.356;2022-10-13T00:21:17;14.37;;;8.73;;
24617;SDS011;12762;51.730;5.356;2022-10-13T00:23:46;20.53;;;9.77;;
24617;SDS011;12762;51.730;5.356;2022-10-13T00:26:14;15.63;;;8.53;;
24617;SDS011;12762;51.730;5.356;2022-10-13T00:28:41;15.77;;;8.70;;
24617;SDS011;12762;51.730;5.356;2022-10-13T00:31:18;15.30;;;8.57;;
24617;SDS011;12762;51.730;5.356;2022-10-13T00:33:50;20.50;;;9.07;;
24617;SDS011;12762;51.730;5.356;2022-10-13T00:36:18;16.90;;;9.90;;
24617;SDS011;12762;51.730;5.356;2022-10-13T00:38:46;16.43;;;9.07;;
24617;SDS011;12762;51.730;5.356;2022-10-13T00:41:13;16.23;;;9.07;;
24617;SDS011;12762;51.730;5.356;2022-10-13T00:43:48;16.83;;;9.63;;
24617;SDS011;12762;51.730;5.356;2022-10-13T00:46:24;21.00;;;9.20;;
24617;SDS011;12762;51.730;5.356;2022-10-13T00:49:06;15.37;;;9.20;;
24617;SDS011;12762;51.730;5.356;2022-10-13T00:51:42;19.80;;;9.17;;
24617;SDS011;12762;51.730;5.356;2022-10-13T00:54:13;18.40;;;9.63;;
24617;SDS011;12762;51.730;5.356;2022-10-13T00:56:42;20.27;;;9.23;;
24617;SDS011;12762;51.730;5.356;2022-10-13T00:59:16;21.97;;;10.03;;
24617;SDS011;12762;51.730;5.356;2022-10-13T01:01:49;17.93;;;9.97;;
24617;SDS011;12762;51.730;5.356;2022-10-13T01:04:16;17.73;;;9.40;;
24617;SDS011;12762;51.730;5.356;2022-10-13T01:06:45;19.27;;;9.37;;
24617;SDS011;12762;51.730;5.356;2022-10-13T01:09:12;21.27;;;9.87;;
24617;SDS011;12762;51.730;5.356;2022-10-13T01:25:10;17.13;;;9.63;;
24617;SDS011;12762;51.730;5.356;2022-10-13T01:27:48;16.70;;;8.93;;
24617;SDS011;12762;51.730;5.356;2022-10-13T01:30:18;16.97;;;8.93;;
24617;SDS011;12762;51.730;5.356;2022-10-13T01:44:19;18.73;;;10.13;;
24617;SDS011;12762;51.730;5.356;2022-10-13T01:46:58;19.03;;;8.93;;
24617;SDS011;12762;51.730;5.356;2022-10-13T01:49:27;17.10;;;9.73;;
24617;SDS011;12762;51.730;5.356;2022-10-13T01:52:00;17.23;;;9.13;;
24617;SDS011;12762;51.730;5.356;2022-10-13T01:54:30;22.67;;;9.73;;
24617;SDS011;12762;51.730;5.356;2022-10-13T01:56:58;25.17;;;10.50;;
24617;SDS011;12762;51.730;5.356;2022-10-13T01:59:25;20.77;;;10.07;;
24617;SDS011;12762;51.730;5.356;2022-10-13T02:02:07;19.27;;;9.77;;
24617;SDS011;12762;51.730;5.356;2022-10-13T02:07:26;19.37;;;9.43;;
24617;SDS011;12762;51.730;5.356;2022-10-13T02:12:57;19.87;;;9.77;;
24617;SDS011;12762;51.730;5.356;2022-10-13T02:15:36;21.03;;;9.87;;
24617;SDS011;12762;51.730;5.356;2022-10-13T02:18:09;19.83;;;10.37;;
24617;SDS011;12762;51.730;5.356;2022-10-13T02:20:39;24.33;;;9.43;;
24617;SDS011;12762;51.730;5.356;2022-10-13T02:23:08;19.23;;;9.93;;
24617;SDS011;12762;51.730;5.356;2022-10-13T02:25:37;18.47;;;9.77;;
24617;SDS011;12762;51.730;5.356;2022-10-13T02:28:05;20.50;;;10.37;;
24617;SDS011;12762;51.730;5.356;2022-10-13T02:30:33;16.80;;;9.10;;
24617;SDS011;12762;51.730;5.356;2022-10-13T02:33:01;22.40;;;9.77;;
24617;SDS011;12762;51.730;5.356;2022-10-13T02:35:28;21.03;;;10.23;;
24617;SDS011;12762;51.730;5.356;2022-10-13T02:37:56;18.80;;;9.90;;
24617;SDS011;12762;51.730;5.356;2022-10-13T02:40:23;22.07;;;9.60;;
24617;SDS011;12762;51.730;5.356;2022-10-13T02:42:49;18.23;;;9.37;;
24617;SDS011;12762;51.730;5.356;2022-10-13T02:45:16;18.73;;;9.37;;
24617;SDS011;12762;51.730;5.356;2022-10-13T02:47:43;17.83;;;10.10;;
24617;SDS011;12762;51.730;5.356;2022-10-13T02:50:13;16.37;;;9.17;;
24617;SDS011;12762;51.730;5.356;2022-10-13T02:52:39;19.20;;;9.60;;
24617;SDS011;12762;51.730;5.356;2022-10-13T02:55:07;18.17;;;9.47;;
24617;SDS011;12762;51.730;5.356;2022-10-13T02:57:34;17.23;;;9.67;;
24617;SDS011;12762;51.730;5.356;2022-10-13T03:00:01;16.63;;;9.03;;
24617;SDS011;12762;51.730;5.356;2022-10-13T03:02:30;19.27;;;9.73;;
24617;SDS011;12762;51.730;5.356;2022-10-13T03:04:57;18.30;;;9.67;;
24617;SDS011;12762;51.730;5.356;2022-10-13T03:07:24;16.43;;;9.20;;
24617;SDS011;12762;51.730;5.356;2022-10-13T03:09:51;18.63;;;9.47;;
24617;SDS011;12762;51.730;5.356;2022-10-13T03:12:18;21.40;;;9.50;;
24617;SDS011;12762;51.730;5.356;2022-10-13T03:14:45;17.10;;;9.43;;
24617;SDS011;12762;51.730;5.356;2022-10-13T03:17:12;19.17;;;9.10;;
24617;SDS011;12762;51.730;5.356;2022-10-13T03:19:39;18.93;;;9.67;;
24617;SDS011;12762;51.730;5.356;2022-10-13T03:22:12;17.60;;;9.53;;
24617;SDS011;12762;51.730;5.356;2022-10-13T03:24:41;20.73;;;9.47;;
24617;SDS011;12762;51.730;5.356;2022-10-13T03:27:08;16.93;;;9.03;;
24617;SDS011;12762;51.730;5.356;2022-10-13T03:29:35;16.10;;;8.37;;
24617;SDS011;12762;51.730;5.356;2022-10-13T03:32:02;16.20;;;9.03;;
24617;SDS011;12762;51.730;5.356;2022-10-13T03:34:29;18.40;;;9.30;;
24617;SDS011;12762;51.730;5.356;2022-10-13T03:36:56;19.03;;;8.90;;
24617;SDS011;12762;51.730;5.356;2022-10-13T03:39:23;17.13;;;8.83;;
24617;SDS011;12762;51.730;5.356;2022-10-13T03:41:50;18.30;;;9.43;;
24617;SDS011;12762;51.730;5.356;2022-10-13T03:44:16;20.60;;;9.33;;
24617;SDS011;12762;51.730;5.356;2022-10-13T03:46:43;19.00;;;9.60;;
24617;SDS011;12762;51.730;5.356;2022-10-13T03:49:10;18.23;;;9.33;;
24617;SDS011;12762;51.730;5.356;2022-10-13T03:51:37;18.27;;;9.77;;
24617;SDS011;12762;51.730;5.356;2022-10-13T03:54:04;20.20;;;9.03;;
24617;SDS011;12762;51.730;5.356;2022-10-13T03:56:34;19.97;;;9.27;;
24617;SDS011;12762;51.730;5.356;2022-10-13T03:59:02;17.70;;;9.40;;
24617;SDS011;12762;51.730;5.356;2022-10-13T04:01:30;17.80;;;8.40;;
24617;SDS011;12762;51.730;5.356;2022-10-13T04:04:01;20.53;;;9.17;;
24617;SDS011;12762;51.730;5.356;2022-10-13T04:06:28;13.80;;;8.33;;
24617;SDS011;12762;51.730;5.356;2022-10-13T04:08:56;20.63;;;9.10;;
24617;SDS011;12762;51.730;5.356;2022-10-13T04:11:23;21.97;;;8.23;;
24617;SDS011;12762;51.730;5.356;2022-10-13T04:13:50;18.63;;;8.70;;
24617;SDS011;12762;51.730;5.356;2022-10-13T04:16:19;18.23;;;9.33;;
24617;SDS011;12762;51.730;5.356;2022-10-13T04:19:05;20.07;;;8.67;;
24617;SDS011;12762;51.730;5.356;2022-10-13T04:21:32;17.33;;;8.60;;
24617;SDS011;12762;51.730;5.356;2022-10-13T04:24:01;16.40;;;8.70;;
24617;SDS011;12762;51.730;5.356;2022-10-13T04:26:29;17.40;;;8.40;;
24617;SDS011;12762;51.730;5.356;2022-10-13T04:28:58;14.53;;;8.30;;
24617;SDS011;12762;51.730;5.356;2022-10-13T04:31:26;18.03;;;8.43;;
24617;SDS011;12762;51.730;5.356;2022-10-13T04:33:54;16.07;;;8.90;;
24617;SDS011;12762;51.730;5.356;2022-10-13T04:36:21;19.77;;;8.70;;
24617;SDS011;12762;51.730;5.356;2022-10-13T04:38:48;17.10;;;8.63;;
24617;SDS011;12762;51.730;5.356;2022-10-13T04:41:16;15.13;;;8.43;;
24617;SDS011;12762;51.730;5.356;2022-10-13T04:43:46;15.07;;;8.57;;
24617;SDS011;12762;51.730;5.356;2022-10-13T04:46:14;18.63;;;8.77;;
24617;SDS011;12762;51.730;5.356;2022-10-13T04:48:44;18.03;;;8.67;;
24617;SDS011;12762;51.730;5.356;2022-10-13T04:51:13;18.67;;;8.73;;
24617;SDS011;12762;51.730;5.356;2022-10-13T04:53:42;21.67;;;9.07;;
24617;SDS011;12762;51.730;5.356;2022-10-13T04:56:15;19.77;;;8.70;;
24617;SDS011;12762;51.730;5.356;2022-10-13T04:58:43;19.90;;;8.20;;
24617;SDS011;12762;51.730;5.356;2022-10-13T05:01:12;22.50;;;9.50;;
24617;SDS011;12762;51.730;5.356;2022-10-13T05:03:46;14.37;;;9.30;;
24617;SDS011;12762;51.730;5.356;2022-10-13T05:06:21;16.23;;;8.70;;
24617;SDS011;12762;51.730;5.356;2022-10-13T05:08:49;18.53;;;9.07;;
24617;SDS011;12762;51.730;5.356;2022-10-13T05:11:16;15.33;;;8.70;;
24617;SDS011;12762;51.730;5.356;2022-10-13T05:13:46;18.27;;;8.30;;
24617;SDS011;12762;51.730;5.356;2022-10-13T05:16:13;15.10;;;8.27;;
24617;SDS011;12762;51.730;5.356;2022-10-13T05:18:41;16.10;;;9.00;;
24617;SDS011;12762;51.730;5.356;2022-10-13T05:21:10;16.10;;;8.37;;
24617;SDS011;12762;51.730;5.356;2022-10-13T05:23:37;17.37;;;8.40;;
24617;SDS011;12762;51.730;5.356;2022-10-13T05:26:09;18.70;;;9.00;;
24617;SDS011;12762;51.730;5.356;2022-10-13T05:28:38;15.80;;;8.63;;
24617;SDS011;12762;51.730;5.356;2022-10-13T05:33:38;14.03;;;8.60;;
24617;SDS011;12762;51.730;5.356;2022-10-13T05:36:05;13.73;;;8.13;;
24617;SDS011;12762;51.730;5.356;2022-10-13T05:38:34;17.27;;;9.13;;
24617;SDS011;12762;51.730;5.356;2022-10-13T05:41:08;20.63;;;8.30;;
24617;SDS011;12762;51.730;5.356;2022-10-13T05:43:37;18.27;;;8.63;;
24617;SDS011;12762;51.730;5.356;2022-10-13T05:46:06;19.20;;;8.43;;
24617;SDS011;12762;51.730;5.356;2022-10-13T05:48:36;19.70;;;9.10;;
24617;SDS011;12762;51.730;5.356;2022-10-13T05:51:08;20.97;;;9.00;;
24617;SDS011;12762;51.730;5.356;2022-10-13T05:53:42;18.80;;;8.87;;
24617;SDS011;12762;51.730;5.356;2022-10-13T05:56:23;18.70;;;8.93;;
24617;SDS011;12762;51.730;5.356;2022-10-13T05:59:03;18.60;;;9.23;;
24617;SDS011;12762;51.730;5.356;2022-10-13T06:01:34;18.97;;;8.87;;
24617;SDS011;12762;51.730;5.356;2022-10-13T06:04:05;17.70;;;8.73;;
24617;SDS011;12762;51.730;5.356;2022-10-13T06:06:36;19.10;;;9.10;;
24617;SDS011;12762;51.730;5.356;2022-10-13T06:09:03;19.73;;;9.63;;
24617;SDS011;12762;51.730;5.356;2022-10-13T06:11:30;13.83;;;8.43;;
24617;SDS011;12762;51.730;5.356;2022-10-13T06:13:57;17.53;;;9.23;;
24617;SDS011;12762;51.730;5.356;2022-10-13T06:16:27;21.03;;;9.27;;
24617;SDS011;12762;51.730;5.356;2022-10-13T06:18:54;25.00;;;9.47;;
24617;SDS011;12762;51.730;5.356;2022-10-13T06:21:20;18.43;;;8.57;;
24617;SDS011;12762;51.730;5.356;2022-10-13T06:23:47;15.93;;;9.37;;
24617;SDS011;12762;51.730;5.356;2022-10-13T06:26:14;17.13;;;8.50;;
24617;SDS011;12762;51.730;5.356;2022-10-13T06:28:41;14.70;;;8.83;;
24617;SDS011;12762;51.730;5.356;2022-10-13T06:31:14;15.53;;;8.67;;
24617;SDS011;12762;51.730;5.356;2022-10-13T06:33:40;20.00;;;9.47;;
24617;SDS011;12762;51.730;5.356;2022-10-13T06:36:07;19.63;;;8.93;;
24617;SDS011;12762;51.730;5.356;2022-10-13T06:38:34;19.50;;;8.87;;
24617;SDS011;12762;51.730;5.356;2022-10-13T06:41:04;19.83;;;9.70;;
24617;SDS011;12762;51.730;5.356;2022-10-13T06:43:31;18.53;;;9.37;;
24617;SDS011;12762;51.730;5.356;2022-10-13T06:46:05;17.60;;;9.00;;
24617;SDS011;12762;51.730;5.356;2022-10-13T06:48:32;18.73;;;9.93;;
24617;SDS011;12762;51.730;5.356;2022-10-13T06:51:07;18.07;;;8.73;;
24617;SDS011;12762;51.730;5.356;2022-10-13T06:53:35;17.67;;;8.53;;
24617;SDS011;12762;51.730;5.356;2022-10-13T06:56:02;21.20;;;9.20;;
24617;SDS011;12762;51.730;5.356;2022-10-13T06:58:31;17.73;;;9.47;;
24617;SDS011;12762;51.730;5.356;2022-10-13T07:00:59;17.17;;;9.07;;
24617;SDS011;12762;51.730;5.356;2022-10-13T07:03:26;21.80;;;10.00;;
24617;SDS011;12762;51.730;5.356;2022-10-13T07:05:53;18.30;;;9.67;;
24617;SDS011;12762;51.730;5.356;2022-10-13T07:08:20;17.07;;;8.87;;
24617;SDS011;12762;51.730;5.356;2022-10-13T07:10:46;19.10;;;9.53;;
24617;SDS011;12762;51.730;5.356;2022-10-13T07:13:13;22.13;;;9.70;;
24617;SDS011;12762;51.730;5.356;2022-10-13T07:15:40;21.77;;;10.03;;
24617;SDS011;12762;51.730;5.356;2022-10-13T07:18:07;21.13;;;9.73;;
24617;SDS011;12762;51.730;5.356;2022-10-13T07:20:34;20.60;;;9.50;;
24617;SDS011;12762;51.730;5.356;2022-10-13T07:23:01;20.50;;;10.30;;
24617;SDS011;12762;51.730;5.356;2022-10-13T07:25:28;17.53;;;9.73;;
24617;SDS011;12762;51.730;5.356;2022-10-13T07:27:56;20.33;;;9.40;;
24617;SDS011;12762;51.730;5.356;2022-10-13T07:30:24;23.33;;;10.27;;
24617;SDS011;12762;51.730;5.356;2022-10-13T07:32:52;22.03;;;10.97;;
24617;SDS011;12762;51.730;5.356;2022-10-13T07:35:19;25.00;;;11.27;;
24617;SDS011;12762;51.730;5.356;2022-10-13T07:37:51;26.60;;;11.13;;
24617;SDS011;12762;51.730;5.356;2022-10-13T07:40:18;23.50;;;11.53;;
24617;SDS011;12762;51.730;5.356;2022-10-13T07:42:45;24.10;;;11.03;;
24617;SDS011;12762;51.730;5.356;2022-10-13T07:45:12;22.60;;;11.00;;
24617;SDS011;12762;51.730;5.356;2022-10-13T07:47:39;22.00;;;11.53;;
24617;SDS011;12762;51.730;5.356;2022-10-13T07:50:06;21.73;;;11.50;;
24617;SDS011;12762;51.730;5.356;2022-10-13T07:52:36;27.60;;;11.90;;
24617;SDS011;12762;51.730;5.356;2022-10-13T07:55:03;24.17;;;11.33;;
24617;SDS011;12762;51.730;5.356;2022-10-13T07:57:30;23.13;;;11.40;;
24617;SDS011;12762;51.730;5.356;2022-10-13T07:59:57;22.17;;;11.77;;
24617;SDS011;12762;51.730;5.356;2022-10-13T08:02:24;23.30;;;10.90;;
24617;SDS011;12762;51.730;5.356;2022-10-13T08:04:51;20.97;;;11.30;;
24617;SDS011;12762;51.730;5.356;2022-10-13T08:07:18;22.80;;;11.73;;
24617;SDS011;12762;51.730;5.356;2022-10-13T08:09:45;22.23;;;11.53;;
24617;SDS011;12762;51.730;5.356;2022-10-13T08:12:12;20.57;;;10.87;;
24617;SDS011;12762;51.730;5.356;2022-10-13T08:14:39;26.47;;;12.17;;
24617;SDS011;12762;51.730;5.356;2022-10-13T08:17:07;24.50;;;11.03;;
24617;SDS011;12762;51.730;5.356;2022-10-13T08:19:34;23.37;;;12.43;;
24617;SDS011;12762;51.730;5.356;2022-10-13T08:22:00;23.70;;;11.20;;
24617;SDS011;12762;51.730;5.356;2022-10-13T08:24:32;22.37;;;11.60;;
24617;SDS011;12762;51.730;5.356;2022-10-13T08:26:59;19.60;;;10.80;;
24617;SDS011;12762;51.730;5.356;2022-10-13T08:29:26;23.10;;;11.03;;
24617;SDS011;12762;51.730;5.356;2022-10-13T08:31:53;22.23;;;11.73;;
24617;SDS011;12762;51.730;5.356;2022-10-13T08:34:23;21.30;;;10.23;;
24617;SDS011;12762;51.730;5.356;2022-10-13T08:36:51;20.70;;;11.27;;
24617;SDS011;12762;51.730;5.356;2022-10-13T08:39:21;20.43;;;11.60;;
24617;SDS011;12762;51.730;5.356;2022-10-13T08:41:49;22.77;;;10.67;;
24617;SDS011;12762;51.730;5.356;2022-10-13T08:49:48;22.20;;;11.10;;
24617;SDS011;12762;51.730;5.356;2022-10-13T08:52:19;22.87;;;12.27;;
24617;SDS011;12762;51.730;5.356;2022-10-13T08:54:52;22.90;;;11.53;;
24617;SDS011;12762;51.730;5.356;2022-10-13T08:57:20;20.43;;;11.33;;
24617;SDS011;12762;51.730;5.356;2022-10-13T08:59:48;21.17;;;11.20;;
24617;SDS011;12762;51.730;5.356;2022-10-13T09:02:24;21.03;;;12.13;;
24617;SDS011;12762;51.730;5.356;2022-10-13T09:04:55;26.60;;;12.60;;
24617;SDS011;12762;51.730;5.356;2022-10-13T09:07:28;24.50;;;12.07;;
24617;SDS011;12762;51.730;5.356;2022-10-13T09:10:10;18.63;;;12.30;;
24617;SDS011;12762;51.730;5.356;2022-10-13T09:12:37;21.23;;;12.10;;
24617;SDS011;12762;51.730;5.356;2022-10-13T09:15:06;20.87;;;11.27;;
24617;SDS011;12762;51.730;5.356;2022-10-13T09:17:35;20.70;;;10.70;;
24617;SDS011;12762;51.730;5.356;2022-10-13T09:22:43;21.57;;;11.17;;
24617;SDS011;12762;51.730;5.356;2022-10-13T09:25:25;22.33;;;11.80;;
24617;SDS011;12762;51.730;5.356;2022-10-13T09:27:56;25.07;;;11.53;;
24617;SDS011;12762;51.730;5.356;2022-10-13T09:30:30;19.27;;;11.20;;
24617;SDS011;12762;51.730;5.356;2022-10-13T09:35:38;22.63;;;11.37;;
24617;SDS011;12762;51.730;5.356;2022-10-13T09:38:14;25.47;;;11.07;;
24617;SDS011;12762;51.730;5.356;2022-10-13T09:40:43;22.30;;;11.07;;
24617;SDS011;12762;51.730;5.356;2022-10-13T09:49:56;23.53;;;10.83;;
24617;SDS011;12762;51.730;5.356;2022-10-13T10:00:18;20.33;;;10.60;;
24617;SDS011;12762;51.730;5.356;2022-10-13T10:05:31;19.10;;;10.83;;
24617;SDS011;12762;51.730;5.356;2022-10-13T10:11:28;22.43;;;11.10;;
24617;SDS011;12762;51.730;5.356;2022-10-13T10:14:44;23.33;;;11.90;;
24617;SDS011;12762;51.730;5.356;2022-10-13T10:22:51;20.67;;;11.20;;
24617;SDS011;12762;51.730;5.356;2022-10-13T10:25:46;22.17;;;12.03;;
24617;SDS011;12762;51.730;5.356;2022-10-13T10:31:04;22.10;;;11.47;;
24617;SDS011;12762;51.730;5.356;2022-10-13T10:36:35;22.53;;;12.20;;
24617;SDS011;12762;51.730;5.356;2022-10-13T10:42:01;22.67;;;12.73;;
24617;SDS011;12762;51.730;5.356;2022-10-13T10:44:48;21.73;;;11.87;;
24617;SDS011;12762;51.730;5.356;2022-10-13T10:47:20;25.03;;;12.97;;
24617;SDS011;12762;51.730;5.356;2022-10-13T10:50:02;24.00;;;12.53;;
24617;SDS011;12762;51.730;5.356;2022-10-13T10:52:48;21.93;;;12.43;;
24617;SDS011;12762;51.730;5.356;2022-10-13T10:55:24;24.50;;;12.40;;
24617;SDS011;12762;51.730;5.356;2022-10-13T10:58:17;24.40;;;12.77;;
24617;SDS011;12762;51.730;5.356;2022-10-13T11:00:55;21.80;;;12.23;;
24617;SDS011;12762;51.730;5.356;2022-10-13T11:06:24;30.20;;;15.00;;
24617;SDS011;12762;51.730;5.356;2022-10-13T11:09:05;28.87;;;15.97;;
24617;SDS011;12762;51.730;5.356;2022-10-13T11:11:33;26.30;;;16.33;;
24617;SDS011;12762;51.730;5.356;2022-10-13T11:17:37;28.33;;;15.07;;
24617;SDS011;12762;51.730;5.356;2022-10-13T11:19:32;25.13;;;13.90;;
24617;SDS011;12762;51.730;5.356;2022-10-13T11:38:15;20.37;;;11.67;;
24617;SDS011;12762;51.730;5.356;2022-10-13T11:56:51;19.23;;;11.33;;
24617;SDS011;12762;51.730;5.356;2022-10-13T11:59:26;20.83;;;10.83;;
24617;SDS011;12762;51.730;5.356;2022-10-13T12:01:58;20.27;;;10.10;;
24617;SDS011;12762;51.730;5.356;2022-10-13T12:04:38;19.13;;;10.37;;
24617;SDS011;12762;51.730;5.356;2022-10-13T12:07:14;17.73;;;10.33;;
24617;SDS011;12762;51.730;5.356;2022-10-13T12:09:47;21.17;;;11.20;;
24617;SDS011;12762;51.730;5.356;2022-10-13T12:12:16;22.97;;;10.87;;
24617;SDS011;12762;51.730;5.356;2022-10-13T12:14:47;18.97;;;10.57;;
24617;SDS011;12762;51.730;5.356;2022-10-13T12:17:21;17.13;;;10.83;;
24617;SDS011;12762;51.730;5.356;2022-10-13T12:19:53;20.27;;;11.07;;
24617;SDS011;12762;51.730;5.356;2022-10-13T12:22:21;18.80;;;10.57;;
24617;SDS011;12762;51.730;5.356;2022-10-13T12:24:55;19.10;;;11.63;;
24617;SDS011;12762;51.730;5.356;2022-10-13T12:27:29;20.80;;;10.87;;
24617;SDS011;12762;51.730;5.356;2022-10-13T12:29:59;19.37;;;11.10;;
24617;SDS011;12762;51.730;5.356;2022-10-13T12:32:27;17.80;;;10.70;;
24617;SDS011;12762;51.730;5.356;2022-10-13T12:34:55;18.40;;;11.10;;
24617;SDS011;12762;51.730;5.356;2022-10-13T12:37:40;19.47;;;11.10;;
24617;SDS011;12762;51.730;5.356;2022-10-13T12:40:07;20.17;;;11.13;;
24617;SDS011;12762;51.730;5.356;2022-10-13T12:42:39;17.87;;;10.43;;
24617;SDS011;12762;51.730;5.356;2022-10-13T12:45:06;18.57;;;10.90;;
24617;SDS011;12762;51.730;5.356;2022-10-13T12:50:56;17.93;;;10.90;;
24617;SDS011;12762;51.730;5.356;2022-10-13T12:53:15;17.73;;;10.90;;
24617;SDS011;12762;51.730;5.356;2022-10-13T12:55:52;22.13;;;10.93;;
24617;SDS011;12762;51.730;5.356;2022-10-13T12:58:26;17.33;;;9.97;;
24617;SDS011;12762;51.730;5.356;2022-10-13T13:03:33;18.37;;;9.97;;
24617;SDS011;12762;51.730;5.356;2022-10-13T13:06:09;14.63;;;9.93;;
24617;SDS011;12762;51.730;5.356;2022-10-13T13:08:36;18.50;;;11.07;;
24617;SDS011;12762;51.730;5.356;2022-10-13T13:11:06;24.13;;;10.70;;
24617;SDS011;12762;51.730;5.356;2022-10-13T13:13:46;16.93;;;10.87;;
24617;SDS011;12762;51.730;5.356;2022-10-13T13:16:17;19.97;;;9.83;;
24617;SDS011;12762;51.730;5.356;2022-10-13T13:18:46;22.00;;;10.47;;
24617;SDS011;12762;51.730;5.356;2022-10-13T13:21:18;16.63;;;10.37;;
24617;SDS011;12762;51.730;5.356;2022-10-13T13:23:46;17.70;;;10.43;;
24617;SDS011;12762;51.730;5.356;2022-10-13T13:26:20;18.33;;;10.53;;
24617;SDS011;12762;51.730;5.356;2022-10-13T13:28:49;24.90;;;10.57;;
24617;SDS011;12762;51.730;5.356;2022-10-13T13:31:21;21.13;;;10.37;;
24617;SDS011;12762;51.730;5.356;2022-10-13T13:33:50;19.10;;;10.37;;
24617;SDS011;12762;51.730;5.356;2022-10-13T13:36:20;18.53;;;9.97;;
24617;SDS011;12762;51.730;5.356;2022-10-13T13:38:51;14.27;;;9.40;;
24617;SDS011;12762;51.730;5.356;2022-10-13T13:41:19;19.20;;;10.57;;
24617;SDS011;12762;51.730;5.356;2022-10-13T13:43:48;19.20;;;10.30;;
24617;SDS011;12762;51.730;5.356;2022-10-13T13:46:16;15.60;;;9.73;;
24617;SDS011;12762;51.730;5.356;2022-10-13T13:48:46;19.30;;;10.60;;
24617;SDS011;12762;51.730;5.356;2022-10-13T13:51:13;17.07;;;9.27;;
24617;SDS011;12762;51.730;5.356;2022-10-13T13:53:40;16.40;;;9.60;;
24617;SDS011;12762;51.730;5.356;2022-10-13T13:56:10;17.73;;;9.83;;
24617;SDS011;12762;51.730;5.356;2022-10-13T13:58:39;21.30;;;11.53;;
24617;SDS011;12762;51.730;5.356;2022-10-13T14:01:05;18.03;;;9.03;;
24617;SDS011;12762;51.730;5.356;2022-10-13T14:03:32;19.20;;;9.53;;
24617;SDS011;12762;51.730;5.356;2022-10-13T14:05:59;15.43;;;9.53;;
24617;SDS011;12762;51.730;5.356;2022-10-13T14:08:28;17.10;;;10.20;;
24617;SDS011;12762;51.730;5.356;2022-10-13T14:10:59;17.87;;;10.60;;
24617;SDS011;12762;51.730;5.356;2022-10-13T14:13:30;19.60;;;10.83;;
24617;SDS011;12762;51.730;5.356;2022-10-13T14:16:02;19.87;;;10.57;;
24617;SDS011;12762;51.730;5.356;2022-10-13T14:18:33;17.23;;;11.33;;
24617;SDS011;12762;51.730;5.356;2022-10-13T14:21:04;15.93;;;10.73;;
24617;SDS011;12762;51.730;5.356;2022-10-13T14:23:31;18.30;;;11.77;;
24617;SDS011;12762;51.730;5.356;2022-10-13T14:25:58;18.63;;;10.83;;
24617;SDS011;12762;51.730;5.356;2022-10-13T14:28:25;18.53;;;11.33;;
24617;SDS011;12762;51.730;5.356;2022-10-13T14:30:52;19.67;;;12.10;;
24617;SDS011;12762;51.730;5.356;2022-10-13T14:33:18;19.50;;;11.67;;
24617;SDS011;12762;51.730;5.356;2022-10-13T14:35:45;19.67;;;11.77;;
24617;SDS011;12762;51.730;5.356;2022-10-13T14:38:12;18.07;;;11.60;;
24617;SDS011;12762;51.730;5.356;2022-10-13T14:40:40;16.57;;;11.63;;
24617;SDS011;12762;51.730;5.356;2022-10-13T14:43:07;18.13;;;11.43;;
24617;SDS011;12762;51.730;5.356;2022-10-13T14:45:34;26.03;;;12.17;;
24617;SDS011;12762;51.730;5.356;2022-10-13T14:48:01;18.43;;;12.00;;
24617;SDS011;12762;51.730;5.356;2022-10-13T14:50:27;17.87;;;11.93;;
24617;SDS011;12762;51.730;5.356;2022-10-13T14:52:54;19.33;;;12.33;;
24617;SDS011;12762;51.730;5.356;2022-10-13T14:55:21;21.53;;;12.20;;
24617;SDS011;12762;51.730;5.356;2022-10-13T14:57:48;19.33;;;12.37;;
24617;SDS011;12762;51.730;5.356;2022-10-13T15:00:15;19.90;;;12.43;;
24617;SDS011;12762;51.730;5.356;2022-10-13T15:02:41;23.20;;;12.17;;
24617;SDS011;12762;51.730;5.356;2022-10-13T15:05:08;18.63;;;12.27;;
24617;SDS011;12762;51.730;5.356;2022-10-13T15:07:36;19.07;;;12.37;;
24617;SDS011;12762;51.730;5.356;2022-10-13T15:10:06;21.23;;;12.40;;
24617;SDS011;12762;51.730;5.356;2022-10-13T15:12:36;22.43;;;12.57;;
24617;SDS011;12762;51.730;5.356;2022-10-13T15:15:03;22.57;;;12.63;;
24617;SDS011;12762;51.730;5.356;2022-10-13T15:17:31;20.53;;;13.20;;
24617;SDS011;12762;51.730;5.356;2022-10-13T15:19:58;19.57;;;12.87;;
24617;SDS011;12762;51.730;5.356;2022-10-13T15:22:25;22.53;;;12.90;;
24617;SDS011;12762;51.730;5.356;2022-10-13T15:24:53;21.40;;;13.73;;
24617;SDS011;12762;51.730;5.356;2022-10-13T15:27:19;22.87;;;13.67;;
24617;SDS011;12762;51.730;5.356;2022-10-13T15:29:46;23.23;;;14.73;;
24617;SDS011;12762;51.730;5.356;2022-10-13T15:32:19;29.03;;;14.97;;
24617;SDS011;12762;51.730;5.356;2022-10-13T15:34:47;28.60;;;14.13;;
24617;SDS011;12762;51.730;5.356;2022-10-13T15:37:14;25.60;;;15.33;;
24617;SDS011;12762;51.730;5.356;2022-10-13T15:39:40;23.70;;;15.90;;
24617;SDS011;12762;51.730;5.356;2022-10-13T15:42:10;25.20;;;15.57;;
24617;SDS011;12762;51.730;5.356;2022-10-13T15:44:37;23.03;;;15.70;;
24617;SDS011;12762;51.730;5.356;2022-10-13T15:47:24;22.73;;;15.03;;
24617;SDS011;12762;51.730;5.356;2022-10-13T15:49:53;28.73;;;16.50;;
24617;SDS011;12762;51.730;5.356;2022-10-13T15:52:20;28.17;;;16.33;;
24617;SDS011;12762;51.730;5.356;2022-10-13T15:54:48;24.13;;;15.80;;
24617;SDS011;12762;51.730;5.356;2022-10-13T15:57:16;26.63;;;16.07;;
24617;SDS011;12762;51.730;5.356;2022-10-13T15:59:43;26.83;;;15.70;;
24617;SDS011;12762;51.730;5.356;2022-10-13T16:02:10;29.33;;;16.87;;
24617;SDS011;12762;51.730;5.356;2022-10-13T16:04:36;24.53;;;15.63;;
24617;SDS011;12762;51.730;5.356;2022-10-13T16:07:03;22.63;;;14.97;;
24617;SDS011;12762;51.730;5.356;2022-10-13T16:09:30;29.50;;;16.40;;
24617;SDS011;12762;51.730;5.356;2022-10-13T16:11:59;25.50;;;15.73;;
24617;SDS011;12762;51.730;5.356;2022-10-13T16:14:27;27.17;;;15.07;;
24617;SDS011;12762;51.730;5.356;2022-10-13T16:16:53;24.57;;;16.20;;
24617;SDS011;12762;51.730;5.356;2022-10-13T16:19:20;25.50;;;15.20;;
24617;SDS011;12762;51.730;5.356;2022-10-13T16:21:47;27.37;;;16.50;;
24617;SDS011;12762;51.730;5.356;2022-10-13T16:24:20;24.17;;;15.53;;
24617;SDS011;12762;51.730;5.356;2022-10-13T16:26:47;28.50;;;16.53;;
24617;SDS011;12762;51.730;5.356;2022-10-13T16:29:13;27.60;;;16.97;;
24617;SDS011;12762;51.730;5.356;2022-10-13T16:31:40;24.60;;;16.23;;
24617;SDS011;12762;51.730;5.356;2022-10-13T16:34:07;23.50;;;15.47;;
24617;SDS011;12762;51.730;5.356;2022-10-13T16:36:35;27.83;;;16.57;;
24617;SDS011;12762;51.730;5.356;2022-10-13T16:39:02;26.17;;;16.23;;
24617;SDS011;12762;51.730;5.356;2022-10-13T16:41:29;25.33;;;17.07;;
24617;SDS011;12762;51.730;5.356;2022-10-13T16:43:55;27.93;;;17.33;;
24617;SDS011;12762;51.730;5.356;2022-10-13T16:46:25;26.53;;;17.63;;